createdAt,value
2022-08-10T00:01:34.995Z,14.00
2022-08-10T00:04:03.013Z,14.00
2022-08-10T00:06:30.326Z,14.00
2022-08-10T00:08:57.881Z,14.00
2022-08-10T00:11:26.338Z,14.00
2022-08-10T00:13:53.518Z,14.00
2022-08-10T00:16:20.871Z,14.00
2022-08-10T00:18:48.028Z,14.00
2022-08-10T00:21:15.288Z,14.00
2022-08-10T00:23:42.601Z,14.00
2022-08-10T00:26:10.400Z,14.00
2022-08-10T00:28:39.208Z,14.00
2022-08-10T00:31:06.808Z,14.00
2022-08-10T00:33:34.077Z,14.00
2022-08-10T00:36:01.317Z,14.00
2022-08-10T00:38:28.604Z,14.00
2022-08-10T00:40:55.859Z,14.00
2022-08-10T00:43:23.983Z,14.00
2022-08-10T00:45:59.291Z,14.00
2022-08-10T00:48:30.987Z,14.00
2022-08-10T00:50:59.748Z,14.00
2022-08-10T00:53:30.073Z,13.90
2022-08-10T00:57:14.613Z,13.90
2022-08-10T00:58:46.642Z,13.90
2022-08-10T01:01:23.505Z,13.90
2022-08-10T01:04:54.155Z,13.90
2022-08-10T01:07:44.097Z,13.90
2022-08-10T01:10:19.003Z,13.80
2022-08-10T01:13:21.489Z,13.80
2022-08-10T01:16:07.544Z,13.70
2022-08-10T01:18:48.019Z,13.70
2022-08-10T01:21:25.593Z,13.70
2022-08-10T01:24:26.583Z,13.70
2022-08-10T01:27:19.619Z,13.70
2022-08-10T01:30:02.401Z,13.70
2022-08-10T01:33:03.782Z,13.70
2022-08-10T01:35:45.863Z,13.70
2022-08-10T01:38:36.589Z,13.60
2022-08-10T01:41:08.687Z,13.60
2022-08-10T01:43:42.696Z,13.60
2022-08-10T01:46:14.804Z,13.60
2022-08-10T01:48:50.113Z,13.60
2022-08-10T01:51:27.197Z,13.60
2022-08-10T01:54:09.246Z,13.60
2022-08-10T01:56:44.063Z,13.60
2022-08-10T01:59:24.285Z,13.60
2022-08-10T02:01:56.483Z,13.60
2022-08-10T02:04:27.280Z,13.60
2022-08-10T02:06:56.210Z,13.60
2022-08-10T02:09:29.456Z,13.50
2022-08-10T02:12:07.597Z,13.50
2022-08-10T02:15:13.640Z,13.50
2022-08-10T02:17:59.032Z,13.50
2022-08-10T02:20:40.790Z,13.50
2022-08-10T02:23:15.371Z,13.50
2022-08-10T02:25:44.236Z,13.50
2022-08-10T02:28:30.596Z,13.50
2022-08-10T02:31:14.259Z,13.50
2022-08-10T02:33:57.301Z,13.50
2022-08-10T02:36:30.216Z,13.50
2022-08-10T02:39:02.187Z,13.50
2022-08-10T02:45:01.817Z,13.60
2022-08-10T02:45:19.058Z,13.60
2022-08-10T02:47:46.569Z,13.60
2022-08-10T02:50:36.903Z,13.60
2022-08-10T02:53:55.239Z,13.60
2022-08-10T02:56:18.887Z,13.60
2022-08-10T02:58:53.636Z,13.70
2022-08-10T03:01:24.129Z,13.70
2022-08-10T03:03:59.442Z,13.70
2022-08-10T03:06:34.173Z,13.70
2022-08-10T03:09:03.578Z,13.70
2022-08-10T03:12:36.019Z,13.70
2022-08-10T03:14:23.149Z,13.70
2022-08-10T03:16:52.466Z,13.70
2022-08-10T03:20:35.046Z,13.70
2022-08-10T03:22:09.614Z,13.80
2022-08-10T03:24:38.243Z,13.80
2022-08-10T03:27:06.281Z,13.80
2022-08-10T03:30:29.696Z,13.80
2022-08-10T03:32:23.435Z,13.80
2022-08-10T03:34:52.284Z,13.90
2022-08-10T03:37:19.730Z,13.90
2022-08-10T03:39:47.080Z,13.90
2022-08-10T03:42:15.522Z,13.90
2022-08-10T03:44:47.339Z,14.00
2022-08-10T03:47:20.405Z,14.00
2022-08-10T03:49:49.082Z,14.10
2022-08-10T03:52:18.146Z,14.10
2022-08-10T03:54:46.365Z,14.20
2022-08-10T03:57:14.453Z,14.20
2022-08-10T03:59:41.853Z,14.20
2022-08-10T04:02:52.198Z,14.30
2022-08-10T04:04:56.946Z,14.30
2022-08-10T04:07:24.356Z,14.40
2022-08-10T04:09:56.170Z,14.40
2022-08-10T04:12:24.835Z,14.50
2022-08-10T04:14:53.238Z,14.50
2022-08-10T04:17:56.991Z,14.60
2022-08-10T04:20:25.924Z,14.60
2022-08-10T04:23:01.515Z,14.70
2022-08-10T04:25:29.100Z,14.70
2022-08-10T04:27:56.877Z,14.70
2022-08-10T04:30:24.642Z,14.80
2022-08-10T04:32:57.598Z,14.80
2022-08-10T04:35:27.956Z,14.80
2022-08-10T04:37:56.510Z,14.90
2022-08-10T04:40:28.661Z,14.90
2022-08-10T04:43:02.190Z,14.90
2022-08-10T04:45:50.074Z,14.90
2022-08-10T04:48:41.271Z,15.00
2022-08-10T04:51:16.882Z,15.00
2022-08-10T04:54:05.070Z,15.00
2022-08-10T04:56:39.293Z,15.10
2022-08-10T04:59:08.387Z,15.10
2022-08-10T05:02:21.527Z,15.10
2022-08-10T05:04:33.932Z,15.20
2022-08-10T05:07:16.721Z,15.20
2022-08-10T05:10:03.462Z,15.20
2022-08-10T05:12:39.159Z,15.20
2022-08-10T05:15:14.630Z,15.20
2022-08-10T05:18:08.893Z,15.20
2022-08-10T05:20:30.499Z,15.20
2022-08-10T05:22:57.800Z,15.20
2022-08-10T05:25:25.137Z,15.20
2022-08-10T05:27:52.616Z,15.10
2022-08-10T05:30:22.043Z,15.20
2022-08-10T05:32:57.381Z,15.20
2022-08-10T05:35:27.791Z,15.30
2022-08-10T05:38:11.591Z,15.30
2022-08-10T05:40:46.782Z,15.40
2022-08-10T05:43:19.504Z,15.40
2022-08-10T05:46:17.341Z,15.60
2022-08-10T05:48:54.365Z,15.60
2022-08-10T05:51:26.731Z,15.70
2022-08-10T05:54:03.362Z,15.90
2022-08-10T05:56:56.183Z,16.00
2022-08-10T06:00:10.793Z,16.10
2022-08-10T06:02:42.105Z,16.20
2022-08-10T06:05:14.312Z,16.30
2022-08-10T06:07:52.141Z,16.30
2022-08-10T06:10:31.390Z,16.30
2022-08-10T06:13:30.979Z,16.40
2022-08-10T06:16:07.248Z,16.50
2022-08-10T06:18:35.950Z,16.70
2022-08-10T06:21:04.425Z,16.80
2022-08-10T06:23:32.441Z,16.80
2022-08-10T06:26:10.902Z,16.90
2022-08-10T06:28:58.262Z,17.00
2022-08-10T06:31:48.953Z,17.10
2022-08-10T06:34:27.349Z,17.20
2022-08-10T06:36:57.768Z,17.40
2022-08-10T06:39:34.965Z,17.50
2022-08-10T06:42:14.714Z,17.50
2022-08-10T06:45:00.211Z,17.50
2022-08-10T06:47:36.364Z,17.60
2022-08-10T06:50:10.666Z,17.60
2022-08-10T06:52:39.436Z,17.60
2022-08-10T06:55:12.733Z,17.70
2022-08-10T06:57:45.840Z,17.80
2022-08-10T07:00:34.153Z,18.10
2022-08-10T07:03:08.184Z,18.30
2022-08-10T07:05:44.456Z,18.60
2022-08-10T07:08:13.505Z,18.90
2022-08-10T07:10:45.505Z,19.00
2022-08-10T07:13:15.729Z,19.20
2022-08-10T07:16:04.323Z,19.30
2022-08-10T07:18:32.482Z,19.20
2022-08-10T07:21:02.219Z,19.20
2022-08-10T07:23:58.619Z,19.20
2022-08-10T07:26:21.426Z,19.30
2022-08-10T07:28:51.146Z,19.20
2022-08-10T07:31:54.363Z,19.30
2022-08-10T07:34:11.596Z,19.30
2022-08-10T07:36:40.487Z,19.50
2022-08-10T07:39:09.805Z,19.50
2022-08-10T07:41:41.310Z,19.50
2022-08-10T07:44:11.555Z,19.50
2022-08-10T07:46:44.715Z,19.60
2022-08-10T07:49:20.257Z,19.80
2022-08-10T07:51:54.705Z,20.00
2022-08-10T07:54:25.450Z,20.10
2022-08-10T07:56:53.808Z,20.20
2022-08-10T07:59:35.985Z,20.30
2022-08-10T08:02:05.378Z,20.40
2022-08-10T08:04:34.245Z,20.50
2022-08-10T08:07:04.629Z,20.60
2022-08-10T08:09:32.278Z,20.70
2022-08-10T08:12:00.955Z,20.70
2022-08-10T08:14:28.953Z,20.60
2022-08-10T08:16:57.739Z,20.40
2022-08-10T08:19:29.799Z,20.50
2022-08-10T08:24:07.805Z,20.50
2022-08-10T08:24:57.756Z,20.40
2022-08-10T08:27:26.373Z,20.30
2022-08-10T08:29:56.827Z,20.20
2022-08-10T08:32:27.766Z,20.20
2022-08-10T08:35:03.076Z,20.10
2022-08-10T08:38:31.492Z,20.10
2022-08-10T08:40:27.071Z,20.30
2022-08-10T08:43:13.122Z,20.60
2022-08-10T08:46:07.198Z,20.80
2022-08-10T08:48:56.845Z,21.00
2022-08-10T08:52:07.732Z,21.20
2022-08-10T08:54:57.292Z,21.40
2022-08-10T08:58:15.412Z,21.60
2022-08-10T09:00:58.073Z,21.70
2022-08-10T09:03:28.261Z,21.70
2022-08-10T09:06:10.802Z,21.90
2022-08-10T09:09:09.516Z,22.00
2022-08-10T09:11:53.171Z,22.30
2022-08-10T09:14:30.347Z,22.40
2022-08-10T09:17:31.364Z,22.30
2022-08-10T09:20:02.611Z,22.10
2022-08-10T09:23:07.779Z,22.10
2022-08-10T09:25:37.930Z,22.10
2022-08-10T09:28:07.748Z,22.20
2022-08-10T09:36:24.975Z,22.80
2022-08-10T09:36:51.326Z,23.20
2022-08-10T09:40:12.391Z,23.60
2022-08-10T09:43:25.884Z,23.80
2022-08-10T09:46:00.011Z,24.10
2022-08-10T09:48:45.870Z,24.30
2022-08-10T09:51:49.127Z,24.40
2022-08-10T09:54:34.898Z,24.10
2022-08-10T09:57:44.597Z,23.80
2022-08-10T10:00:20.681Z,23.80
2022-08-10T10:03:02.631Z,23.80
2022-08-10T10:05:51.271Z,23.90
2022-08-10T10:08:30.249Z,24.00
2022-08-10T10:11:12.172Z,24.00
2022-08-10T10:14:02.706Z,23.80
2022-08-10T10:16:52.713Z,23.60
2022-08-10T10:19:43.918Z,23.50
2022-08-10T10:22:29.819Z,23.70
2022-08-10T10:25:23.658Z,23.90
2022-08-10T10:28:57.542Z,24.10
2022-08-10T10:31:42.104Z,24.10
2022-08-10T10:34:45.807Z,24.00
2022-08-10T10:37:14.423Z,24.00
2022-08-10T10:39:47.163Z,23.90
2022-08-10T10:42:45.222Z,23.70
2022-08-10T10:45:21.452Z,23.30
2022-08-10T10:48:09.681Z,22.90
2022-08-10T10:51:12.795Z,22.70
2022-08-10T10:53:55.221Z,22.70
2022-08-10T10:57:07.707Z,23.10
2022-08-10T11:00:14.720Z,23.70
2022-08-10T11:03:07.886Z,24.30
2022-08-10T11:05:48.330Z,24.70
2022-08-10T11:08:29.025Z,25.20
2022-08-10T11:11:13.045Z,25.60
2022-08-10T11:14:25.831Z,25.90
2022-08-10T11:17:37.603Z,25.80
2022-08-10T11:20:59.061Z,26.00
2022-08-10T11:23:39.650Z,26.20
2022-08-10T11:26:35.487Z,26.30
2022-08-10T11:29:17.731Z,26.40
2022-08-10T11:32:34.210Z,26.40
2022-08-10T11:35:23.256Z,26.30
2022-08-10T11:38:30.923Z,26.40
2022-08-10T11:42:10.149Z,26.30
2022-08-10T11:44:10.921Z,26.30
2022-08-10T11:46:48.433Z,26.20
2022-08-10T11:49:32.419Z,26.20
2022-08-10T11:52:21.500Z,26.40
2022-08-10T11:54:54.296Z,26.30
2022-08-10T11:57:55.498Z,26.50
2022-08-10T13:45:22.238Z,28.10
2022-08-10T13:47:54.373Z,30.40
2022-08-10T13:50:35.660Z,30.40
2022-08-10T13:53:15.928Z,30.70
2022-08-10T13:55:56.142Z,31.00
2022-08-10T13:58:34.039Z,31.10
2022-08-10T14:01:08.760Z,30.80
2022-08-10T14:03:39.302Z,30.30
2022-08-10T14:06:11.628Z,29.50
2022-08-10T14:08:39.873Z,29.10
2022-08-10T14:11:12.953Z,29.00
2022-08-10T14:13:45.754Z,28.80
2022-08-10T14:16:14.349Z,28.70
2022-08-10T14:18:45.147Z,28.90
2022-08-10T14:21:14.267Z,29.00
2022-08-10T14:23:52.636Z,29.30
2022-08-10T14:26:33.147Z,29.70
2022-08-10T14:29:06.977Z,30.10
2022-08-10T14:31:36.516Z,30.30
2022-08-10T14:34:09.103Z,30.50
2022-08-10T14:36:54.839Z,30.60
2022-08-10T14:40:08.737Z,30.70
2022-08-10T14:42:54.609Z,30.80
2022-08-10T14:45:32.079Z,30.90
2022-08-10T14:48:07.523Z,31.00
2022-08-10T14:50:35.598Z,31.10
2022-08-10T14:53:30.170Z,31.10
2022-08-10T14:56:11.272Z,30.90
2022-08-10T14:59:09.585Z,30.30
2022-08-10T15:02:00.109Z,30.20
2022-08-10T15:04:37.392Z,30.20
2022-08-10T15:07:12.081Z,30.30
2022-08-10T15:10:00.920Z,30.20
2022-08-10T15:12:34.482Z,29.90
2022-08-10T15:15:04.413Z,30.10
2022-08-10T15:17:38.052Z,30.30
2022-08-10T15:20:32.242Z,30.60
2022-08-10T15:23:04.048Z,30.50
2022-08-10T15:25:36.503Z,30.50
2022-08-10T15:28:06.769Z,30.60
2022-08-10T15:30:45.870Z,30.90
2022-08-10T15:34:03.685Z,31.40
2022-08-10T15:36:46.652Z,31.80
2022-08-10T15:40:21.529Z,32.30
2022-08-10T15:42:27.343Z,32.60
2022-08-10T15:44:55.363Z,32.90
2022-08-10T15:47:46.237Z,33.10
2022-08-10T15:50:23.860Z,33.20
2022-08-10T15:53:00.135Z,33.20
2022-08-10T15:55:56.900Z,33.20
2022-08-10T15:58:38.695Z,33.30
2022-08-10T16:02:12.857Z,33.30
2022-08-10T16:04:35.738Z,33.30
2022-08-10T16:07:12.572Z,33.30
2022-08-10T16:10:11.170Z,33.20
2022-08-10T16:13:50.193Z,33.30
2022-08-10T16:16:02.112Z,33.20
2022-08-10T16:18:31.821Z,33.10
2022-08-10T16:21:05.817Z,33.10
2022-08-10T16:23:40.936Z,33.00
2022-08-10T16:26:14.627Z,33.00
2022-08-10T16:28:51.323Z,33.00
2022-08-10T16:31:22.682Z,32.90
2022-08-10T16:33:54.744Z,32.60
2022-08-10T16:36:29.480Z,32.00
2022-08-10T16:38:59.203Z,31.50
2022-08-10T16:42:03.456Z,31.30
2022-08-10T16:44:18.977Z,31.00
2022-08-10T16:46:48.313Z,30.90
2022-08-10T16:49:18.223Z,30.80
2022-08-10T16:51:51.163Z,30.60
2022-08-10T16:54:27.028Z,30.30
2022-08-10T16:57:03.745Z,30.00
2022-08-10T16:59:35.846Z,29.80
2022-08-10T17:02:04.699Z,29.60
2022-08-10T17:04:34.834Z,29.20
2022-08-10T17:07:08.545Z,28.80
2022-08-10T17:09:37.881Z,28.30
2022-08-10T17:12:11.733Z,27.60
2022-08-10T17:14:42.437Z,27.10
2022-08-10T17:17:17.515Z,26.50
2022-08-10T17:19:45.714Z,26.00
2022-08-10T17:22:21.878Z,25.60
2022-08-10T17:24:58.107Z,25.10
2022-08-10T17:28:05.003Z,24.70
2022-08-10T17:30:33.795Z,24.30
2022-08-10T17:33:08.823Z,24.00
2022-08-10T17:35:38.071Z,23.60
2022-08-10T17:38:15.284Z,23.30
2022-08-10T17:41:01.084Z,23.00
2022-08-10T17:44:00.839Z,22.70
2022-08-10T17:46:17.255Z,22.40
2022-08-10T17:48:45.204Z,22.10
2022-08-10T17:51:15.631Z,21.90
2022-08-10T17:53:48.403Z,21.70
2022-08-10T17:56:18.676Z,21.50
2022-08-10T17:58:55.945Z,21.20
2022-08-10T18:01:41.287Z,21.10
2022-08-10T18:04:18.370Z,20.90
2022-08-10T18:06:53.479Z,20.60
2022-08-10T18:09:57.970Z,20.40
2022-08-10T18:12:39.471Z,20.20
2022-08-10T18:15:12.500Z,20.00
2022-08-10T18:17:45.497Z,19.80
2022-08-10T18:20:14.969Z,19.60
2022-08-10T18:22:48.922Z,19.40
2022-08-10T18:25:22.617Z,19.20
2022-08-10T18:28:02.060Z,19.00
2022-08-10T18:30:36.592Z,18.90
2022-08-10T18:33:09.457Z,18.80
2022-08-10T18:35:38.939Z,18.60
2022-08-10T18:38:07.978Z,18.40
2022-08-10T18:40:40.033Z,18.30
2022-08-10T18:44:02.841Z,18.20
2022-08-10T18:46:01.469Z,18.00
2022-08-10T18:48:38.964Z,17.80
2022-08-10T18:51:08.089Z,17.70
2022-08-10T18:53:48.477Z,17.60
2022-08-10T18:56:40.488Z,17.50
2022-08-10T18:59:31.461Z,17.30
2022-08-10T19:02:26.132Z,17.10
2022-08-10T19:05:30.240Z,17.00
2022-08-10T19:08:30.433Z,16.90
2022-08-10T19:11:17.712Z,16.70
2022-08-10T19:14:11.345Z,16.60
2022-08-10T19:16:49.100Z,16.50
2022-08-10T19:19:53.798Z,16.40
2022-08-10T19:22:26.921Z,16.30
2022-08-10T19:25:09.499Z,16.20
2022-08-10T19:27:49.278Z,16.10
2022-08-10T19:30:19.203Z,16.10
2022-08-10T19:33:31.453Z,15.90
2022-08-10T19:36:10.177Z,15.90
2022-08-10T19:39:07.067Z,15.80
2022-08-10T19:41:44.258Z,15.70
2022-08-10T19:44:37.055Z,15.70
2022-08-10T19:47:26.702Z,15.60
2022-08-10T19:50:08.943Z,15.60
2022-08-10T19:53:01.537Z,15.50
2022-08-10T19:55:50.329Z,15.40
2022-08-10T19:58:29.752Z,15.30
2022-08-10T20:01:02.941Z,15.20
2022-08-10T20:03:56.837Z,15.10
2022-08-10T20:06:42.572Z,15.00
2022-08-10T20:09:20.420Z,14.90
2022-08-10T20:12:08.112Z,14.80
2022-08-10T20:15:15.789Z,14.80
2022-08-10T20:18:00.189Z,14.70
2022-08-10T20:20:41.943Z,14.70
2022-08-10T20:23:19.160Z,14.60
2022-08-10T20:26:04.755Z,14.60
2022-08-10T20:28:43.076Z,14.60
2022-08-10T20:31:34.291Z,14.60
2022-08-10T20:34:22.843Z,14.50
2022-08-10T20:36:57.565Z,14.50
2022-08-10T20:39:48.030Z,14.40
2022-08-10T20:42:38.297Z,14.30
2022-08-10T20:45:21.719Z,14.20
2022-08-10T20:47:53.752Z,14.10
2022-08-10T20:50:36.731Z,14.10
2022-08-10T20:53:10.646Z,14.00
2022-08-10T20:56:19.481Z,14.00
2022-08-10T20:59:17.478Z,13.90
2022-08-10T21:02:12.201Z,13.90
2022-08-10T21:04:51.082Z,13.80
2022-08-10T21:07:43.947Z,13.80
2022-08-10T21:10:33.150Z,13.70
2022-08-10T21:13:28.200Z,13.70
2022-08-10T21:16:05.960Z,13.70
2022-08-10T21:19:02.569Z,13.60
2022-08-10T21:24:58.025Z,13.50
2022-08-10T21:25:41.746Z,13.50
2022-08-10T21:28:06.820Z,13.40
2022-08-10T21:31:06.224Z,13.30
2022-08-10T21:33:55.956Z,13.30
2022-08-10T21:36:34.164Z,13.30
2022-08-10T21:39:10.369Z,13.20
2022-08-10T21:42:14.572Z,13.20
2022-08-10T21:45:18.831Z,13.20
2022-08-10T21:48:30.153Z,13.10
2022-08-10T21:51:24.312Z,13.00
2022-08-10T21:54:37.422Z,13.00
2022-08-10T21:57:43.739Z,12.90
2022-08-10T22:03:39.368Z,12.70
2022-08-10T22:06:28.365Z,12.70
2022-08-10T22:09:24.340Z,12.70
2022-08-10T22:12:31.155Z,12.60
2022-08-10T22:16:05.690Z,12.60
2022-08-10T22:19:01.364Z,12.50
2022-08-10T22:22:27.698Z,12.50
2022-08-10T22:25:33.491Z,12.50
2022-08-10T22:28:19.652Z,12.50
2022-08-10T22:34:36.735Z,12.40
2022-08-10T22:37:45.384Z,12.40
2022-08-10T22:40:39.071Z,12.30
2022-08-10T22:43:36.326Z,12.30
2022-08-10T22:46:33.073Z,12.30
2022-08-10T22:49:00.797Z,12.30
2022-08-10T22:51:49.666Z,12.20
2022-08-10T22:55:03.897Z,12.10
2022-08-10T22:57:49.756Z,12.10
2022-08-10T23:00:19.684Z,12.10
2022-08-10T23:03:11.587Z,12.00
2022-08-10T23:06:00.481Z,12.00
2022-08-10T23:08:45.610Z,11.90
2022-08-10T23:11:35.664Z,11.90
2022-08-10T23:14:12.262Z,11.80
2022-08-10T23:17:07.651Z,11.80
2022-08-10T23:19:44.552Z,11.70
2022-08-10T23:22:19.605Z,11.70
2022-08-10T23:24:55.437Z,11.70
2022-08-10T23:27:37.952Z,11.60
2022-08-10T23:30:16.963Z,11.60
2022-08-10T23:32:59.276Z,11.50
2022-08-10T23:36:32.443Z,11.50
2022-08-10T23:38:21.901Z,11.50
2022-08-10T23:40:56.881Z,11.50
2022-08-10T23:43:46.711Z,11.40
2022-08-10T23:46:17.827Z,11.40
2022-08-10T23:48:47.048Z,11.40
2022-08-10T23:51:17.439Z,11.40
2022-08-10T23:53:46.866Z,11.40
2022-08-10T23:56:22.463Z,11.30
2022-08-10T23:58:52.792Z,11.30
